createdAt,value
2018-05-08T00:00:42.600Z,987.35
2018-05-08T00:01:42.673Z,987.36
2018-05-08T00:02:42.587Z,987.37
2018-05-08T00:03:42.587Z,987.38
2018-05-08T00:04:42.576Z,987.4
2018-05-08T00:05:42.598Z,987.36
2018-05-08T00:06:42.589Z,987.35
2018-05-08T00:07:42.615Z,987.38
2018-05-08T00:08:42.597Z,987.37
2018-05-08T00:09:42.592Z,987.32
2018-05-08T00:10:42.585Z,987.32
2018-05-08T00:11:42.584Z,987.32
2018-05-08T00:12:42.588Z,987.29
2018-05-08T00:13:42.581Z,987.31
2018-05-08T00:14:42.567Z,987.29
2018-05-08T00:15:42.574Z,987.34
2018-05-08T00:16:42.579Z,987.35
2018-05-08T00:17:42.569Z,987.29
2018-05-08T00:18:42.585Z,987.31
2018-05-08T00:19:42.579Z,987.27
2018-05-08T00:20:42.574Z,987.3
2018-05-08T00:21:42.574Z,987.28
2018-05-08T00:22:42.574Z,987.3
2018-05-08T00:23:42.567Z,987.26
2018-05-08T00:24:42.584Z,987.27
2018-05-08T00:25:42.580Z,987.3
2018-05-08T00:26:42.569Z,987.29
2018-05-08T00:27:42.567Z,987.28
2018-05-08T00:28:42.572Z,987.27
2018-05-08T00:29:42.606Z,987.33
2018-05-08T00:30:42.568Z,987.31
2018-05-08T00:31:42.557Z,987.31
2018-05-08T00:32:42.549Z,987.27
2018-05-08T00:33:42.569Z,987.3
2018-05-08T00:34:42.562Z,987.27
2018-05-08T00:35:42.572Z,987.28
2018-05-08T00:36:42.571Z,987.28
2018-05-08T00:37:42.560Z,987.25
2018-05-08T00:38:42.555Z,987.28
2018-05-08T00:39:42.564Z,987.27
2018-05-08T00:40:42.568Z,987.26
2018-05-08T00:41:42.563Z,987.26
2018-05-08T00:42:42.554Z,987.27
2018-05-08T00:43:42.582Z,987.22
2018-05-08T00:44:42.564Z,987.23
2018-05-08T00:45:42.559Z,987.23
2018-05-08T00:46:42.562Z,987.24
2018-05-08T00:47:42.575Z,987.26
2018-05-08T00:48:42.556Z,987.24
2018-05-08T00:49:42.535Z,987.22
2018-05-08T00:50:42.568Z,987.18
2018-05-08T00:51:42.550Z,987.21
2018-05-08T00:52:42.539Z,987.18
2018-05-08T00:53:42.558Z,987.19
2018-05-08T00:54:42.544Z,987.16
2018-05-08T00:55:42.562Z,987.14
2018-05-08T00:56:42.538Z,987.14
2018-05-08T00:57:42.529Z,987.14
2018-05-08T00:58:42.528Z,987.2
2018-05-08T00:59:42.553Z,987.16
2018-05-08T01:00:42.533Z,987.14
2018-05-08T01:01:42.532Z,987.13
2018-05-08T01:02:42.529Z,987.15
2018-05-08T01:03:42.532Z,987.12
2018-05-08T01:04:42.531Z,987.14
2018-05-08T01:05:42.527Z,987.13
2018-05-08T01:06:42.541Z,987.12
2018-05-08T01:07:42.513Z,987.16
2018-05-08T01:08:42.517Z,987.15
2018-05-08T01:09:42.532Z,987.2
2018-05-08T01:10:42.527Z,987.17
2018-05-08T01:11:42.642Z,987.2
2018-05-08T01:12:42.512Z,987.22
2018-05-08T01:13:42.515Z,987.18
2018-05-08T01:14:42.514Z,987.17
2018-05-08T01:15:42.521Z,987.18
2018-05-08T01:16:42.520Z,987.17
2018-05-08T01:17:42.510Z,987.14
2018-05-08T01:18:42.498Z,987.11
2018-05-08T01:19:42.522Z,987.09
2018-05-08T01:20:42.505Z,987.06
2018-05-08T01:21:42.520Z,987.11
2018-05-08T01:22:42.507Z,987.12
2018-05-08T01:23:42.496Z,987.14
2018-05-08T01:24:42.497Z,987.12
2018-05-08T01:25:42.502Z,987.11
2018-05-08T01:26:42.501Z,987.14
2018-05-08T01:27:42.504Z,987.13
2018-05-08T01:28:42.500Z,987.16
2018-05-08T01:29:42.499Z,987.16
2018-05-08T01:30:42.488Z,987.18
2018-05-08T01:31:42.531Z,987.14
2018-05-08T01:32:42.485Z,987.17
2018-05-08T01:33:42.494Z,987.14
2018-05-08T01:34:42.500Z,987.14
2018-05-08T01:35:42.490Z,987.08
2018-05-08T01:36:42.475Z,987.1
2018-05-08T01:37:42.483Z,987.12
2018-05-08T01:38:42.478Z,987.09
2018-05-08T01:39:42.480Z,987.09
2018-05-08T01:40:42.480Z,987.1
2018-05-08T01:41:42.478Z,987.08
2018-05-08T01:42:42.469Z,987.09
2018-05-08T01:43:42.471Z,987.09
2018-05-08T01:44:42.491Z,987.07
2018-05-08T01:45:42.465Z,987.07
2018-05-08T01:46:42.532Z,987.06
2018-05-08T01:47:42.459Z,987.06
2018-05-08T01:48:42.473Z,987.06
2018-05-08T01:49:42.467Z,987.1
2018-05-08T01:50:42.466Z,987.04
2018-05-08T01:51:42.466Z,987.02
2018-05-08T01:52:42.462Z,987
2018-05-08T01:53:42.450Z,986.99
2018-05-08T01:54:42.449Z,986.94
2018-05-08T01:55:42.453Z,986.95
2018-05-08T01:56:42.448Z,986.93
2018-05-08T01:57:42.446Z,986.93
2018-05-08T01:58:42.443Z,986.93
2018-05-08T01:59:42.442Z,986.91
2018-05-08T02:00:42.442Z,986.88
2018-05-08T02:01:42.451Z,986.87
2018-05-08T02:02:42.450Z,986.86
2018-05-08T02:03:42.444Z,986.84
2018-05-08T02:04:42.440Z,986.86
2018-05-08T02:05:42.447Z,986.9
2018-05-08T02:06:42.432Z,986.84
2018-05-08T02:07:42.432Z,986.86
2018-05-08T02:08:42.432Z,986.87
2018-05-08T02:09:42.428Z,986.86
2018-05-08T02:10:42.426Z,986.89
2018-05-08T02:11:42.424Z,986.85
2018-05-08T02:12:42.429Z,986.87
2018-05-08T02:13:42.420Z,986.91
2018-05-08T02:14:42.421Z,986.93
2018-05-08T02:15:42.421Z,986.89
2018-05-08T02:16:42.417Z,986.91
2018-05-08T02:17:42.417Z,986.99
2018-05-08T02:18:42.413Z,986.96
2018-05-08T02:19:42.413Z,986.92
2018-05-08T02:20:42.412Z,986.97
2018-05-08T02:21:42.408Z,986.95
2018-05-08T02:22:42.405Z,986.91
2018-05-08T02:23:42.420Z,986.91
2018-05-08T02:24:42.403Z,986.91
2018-05-08T02:25:42.404Z,986.87
2018-05-08T02:26:42.686Z,986.91
2018-05-08T02:27:42.399Z,986.86
2018-05-08T02:28:42.398Z,986.81
2018-05-08T02:29:42.398Z,986.82
2018-05-08T02:30:42.397Z,986.9
2018-05-08T02:31:42.393Z,986.86
2018-05-08T02:32:42.396Z,986.95
2018-05-08T02:33:42.394Z,986.92
2018-05-08T02:34:42.395Z,986.94
2018-05-08T02:35:42.386Z,986.94
2018-05-08T02:36:42.384Z,986.92
2018-05-08T02:37:42.385Z,986.94
2018-05-08T02:38:42.382Z,986.96
2018-05-08T02:39:42.380Z,986.94
2018-05-08T02:40:42.381Z,986.94
2018-05-08T02:41:42.376Z,986.94
2018-05-08T02:42:42.375Z,986.93
2018-05-08T02:43:42.383Z,986.95
2018-05-08T02:44:42.373Z,986.89
2018-05-08T02:45:42.378Z,986.87
2018-05-08T02:46:42.376Z,986.87
2018-05-08T02:47:42.368Z,986.82
2018-05-08T02:48:42.364Z,986.84
2018-05-08T02:49:42.362Z,986.84
2018-05-08T02:50:42.365Z,986.79
2018-05-08T02:51:42.363Z,986.82
2018-05-08T02:52:42.361Z,986.82
2018-05-08T02:53:42.355Z,986.81
2018-05-08T02:54:42.355Z,986.85
2018-05-08T02:55:42.357Z,986.74
2018-05-08T02:56:42.349Z,986.77
2018-05-08T02:57:42.348Z,986.74
2018-05-08T02:58:42.354Z,986.77
2018-05-08T02:59:42.346Z,986.75
2018-05-08T03:00:42.342Z,986.73
2018-05-08T03:01:42.342Z,986.72
2018-05-08T03:02:42.340Z,986.75
2018-05-08T03:03:42.338Z,986.69
2018-05-08T03:04:42.332Z,986.71
2018-05-08T03:05:42.335Z,986.68
2018-05-08T03:06:42.331Z,986.63
2018-05-08T03:07:42.329Z,986.66
2018-05-08T03:08:42.326Z,986.67
2018-05-08T03:09:42.327Z,986.69
2018-05-08T03:10:42.327Z,986.7
2018-05-08T03:11:42.320Z,986.71
2018-05-08T03:12:42.322Z,986.7
2018-05-08T03:13:42.323Z,986.72
2018-05-08T03:14:42.315Z,986.75
2018-05-08T03:15:42.311Z,986.74
2018-05-08T03:16:42.323Z,986.75
2018-05-08T03:17:42.315Z,986.76
2018-05-08T03:18:42.307Z,986.73
2018-05-08T03:19:42.319Z,986.74
2018-05-08T03:20:42.316Z,986.74
2018-05-08T03:21:42.310Z,986.75
2018-05-08T03:22:42.323Z,986.72
2018-05-08T03:23:42.299Z,986.74
2018-05-08T03:24:42.297Z,986.77
2018-05-08T03:25:42.301Z,986.78
2018-05-08T03:26:42.304Z,986.79
2018-05-08T03:27:42.307Z,986.83
2018-05-08T03:28:42.297Z,986.77
2018-05-08T03:29:42.287Z,986.78
2018-05-08T03:30:42.281Z,986.81
2018-05-08T03:31:42.281Z,986.78
2018-05-08T03:32:42.340Z,986.74
2018-05-08T03:33:42.277Z,986.75
2018-05-08T03:34:42.282Z,986.72
2018-05-08T03:35:42.274Z,986.76
2018-05-08T03:36:42.282Z,986.8
2018-05-08T03:37:42.291Z,986.81
2018-05-08T03:38:42.266Z,986.78
2018-05-08T03:39:42.327Z,986.78
2018-05-08T03:40:42.335Z,986.78
2018-05-08T03:41:42.264Z,986.81
2018-05-08T03:42:42.274Z,986.8
2018-05-08T03:43:42.264Z,986.8
2018-05-08T03:44:42.253Z,986.79
2018-05-08T03:45:42.254Z,986.75
2018-05-08T03:46:42.253Z,986.78
2018-05-08T03:47:42.247Z,986.8
2018-05-08T03:48:42.249Z,986.79
2018-05-08T03:49:42.246Z,986.78
2018-05-08T03:50:42.243Z,986.83
2018-05-08T03:51:42.248Z,986.85
2018-05-08T03:52:42.245Z,986.85
2018-05-08T03:53:42.243Z,986.82
2018-05-08T03:54:42.234Z,986.84
2018-05-08T03:55:42.243Z,986.84
2018-05-08T03:56:42.230Z,986.87
2018-05-08T03:57:42.230Z,986.83
2018-05-08T03:58:42.224Z,986.85
2018-05-08T03:59:42.223Z,986.82
2018-05-08T04:00:42.227Z,986.84
2018-05-08T04:01:42.223Z,986.8
2018-05-08T04:02:42.216Z,986.8
2018-05-08T04:03:42.213Z,986.81
2018-05-08T04:04:42.210Z,986.83
2018-05-08T04:05:42.209Z,986.83
2018-05-08T04:06:42.206Z,986.82
2018-05-08T04:07:42.210Z,986.84
2018-05-08T04:08:42.203Z,986.8
2018-05-08T04:09:42.200Z,986.81
2018-05-08T04:10:42.203Z,986.83
2018-05-08T04:11:42.196Z,986.84
2018-05-08T04:12:42.194Z,986.85
2018-05-08T04:13:42.191Z,986.82
2018-05-08T04:14:42.190Z,986.83
2018-05-08T04:15:42.192Z,986.87
2018-05-08T04:16:42.185Z,986.86
2018-05-08T04:17:42.186Z,986.86
2018-05-08T04:18:42.182Z,986.8
2018-05-08T04:19:42.186Z,986.8
2018-05-08T04:20:42.192Z,986.82
2018-05-08T04:21:42.182Z,986.85
2018-05-08T04:22:42.221Z,986.89
2018-05-08T04:23:42.176Z,986.86
2018-05-08T04:24:42.175Z,986.82
2018-05-08T04:25:42.172Z,986.82
2018-05-08T04:26:42.176Z,986.79
2018-05-08T04:27:42.168Z,986.81
2018-05-08T04:28:42.168Z,986.82
2018-05-08T04:29:42.173Z,986.84
2018-05-08T04:30:42.176Z,986.82
2018-05-08T04:31:42.168Z,986.79
2018-05-08T04:32:42.164Z,986.77
2018-05-08T04:33:42.165Z,986.76
2018-05-08T04:34:42.166Z,986.71
2018-05-08T04:35:42.167Z,986.61
2018-05-08T04:36:42.185Z,986.59
2018-05-08T04:37:42.167Z,986.59
2018-05-08T04:38:42.167Z,986.61
2018-05-08T04:39:42.171Z,986.68
2018-05-08T04:40:42.175Z,986.73
2018-05-08T04:41:42.178Z,986.74
2018-05-08T04:42:42.169Z,986.71
2018-05-08T04:43:42.174Z,986.72
2018-05-08T04:44:42.174Z,986.75
2018-05-08T04:45:42.175Z,986.74
2018-05-08T04:46:42.177Z,986.7
2018-05-08T04:47:42.182Z,986.73
2018-05-08T04:48:42.182Z,986.76
2018-05-08T04:49:42.186Z,986.7
2018-05-08T04:50:42.187Z,986.78
2018-05-08T04:51:42.193Z,986.77
2018-05-08T04:52:42.191Z,986.72
2018-05-08T04:53:42.193Z,986.7
2018-05-08T04:54:42.192Z,986.75
2018-05-08T04:55:42.201Z,986.72
2018-05-08T04:56:42.218Z,986.77
2018-05-08T04:57:42.209Z,986.75
2018-05-08T04:58:42.211Z,986.74
2018-05-08T04:59:42.222Z,986.75
2018-05-08T05:00:42.219Z,986.74
2018-05-08T05:01:42.218Z,986.76
2018-05-08T05:02:42.231Z,986.74
2018-05-08T05:03:42.225Z,986.78
2018-05-08T05:04:42.236Z,986.83
2018-05-08T05:05:42.241Z,986.79
2018-05-08T05:06:42.240Z,986.82
2018-05-08T05:07:42.245Z,986.79
2018-05-08T05:08:42.245Z,986.76
2018-05-08T05:09:42.251Z,986.75
2018-05-08T05:10:42.254Z,986.74
2018-05-08T05:11:42.258Z,986.72
2018-05-08T05:12:42.289Z,986.78
2018-05-08T05:13:42.269Z,986.72
2018-05-08T05:14:42.291Z,986.9
2018-05-08T05:15:42.303Z,986.91
2018-05-08T05:16:42.401Z,986.88
2018-05-08T05:17:42.294Z,986.66
2018-05-08T05:18:42.295Z,986.65
2018-05-08T05:19:42.298Z,986.63
2018-05-08T05:20:42.307Z,986.68
2018-05-08T05:21:42.303Z,986.62
2018-05-08T05:22:42.310Z,986.57
2018-05-08T05:23:42.312Z,986.58
2018-05-08T05:24:42.311Z,986.62
2018-05-08T05:25:42.314Z,986.83
2018-05-08T05:26:42.318Z,986.77
2018-05-08T05:27:43.374Z,986.51
2018-05-08T05:28:42.325Z,986.53
2018-05-08T05:29:42.328Z,986.56
2018-05-08T05:30:42.334Z,986.57
2018-05-08T05:31:42.423Z,986.61
2018-05-08T05:32:42.347Z,986.55
2018-05-08T05:33:42.358Z,986.56
2018-05-08T05:34:42.359Z,986.52
2018-05-08T05:35:42.352Z,986.52
2018-05-08T05:36:42.356Z,986.64
2018-05-08T05:37:42.355Z,986.61
2018-05-08T05:38:42.360Z,986.63
2018-05-08T05:39:42.360Z,986.39
2018-05-08T05:40:42.365Z,986.47
2018-05-08T05:41:42.370Z,986.45
2018-05-08T05:42:42.487Z,986.42
2018-05-08T05:43:42.378Z,986.39
2018-05-08T05:44:42.379Z,986.39
2018-05-08T05:45:42.387Z,986.37
2018-05-08T05:46:42.383Z,986.38
2018-05-08T05:47:42.396Z,986.55
2018-05-08T05:48:42.414Z,986.53
2018-05-08T05:49:42.396Z,986.5
2018-05-08T05:50:42.400Z,986.49
2018-05-08T05:51:42.404Z,986.47
2018-05-08T05:52:42.410Z,986.48
2018-05-08T05:53:42.421Z,986.48
2018-05-08T05:54:42.418Z,986.45
2018-05-08T05:55:42.426Z,986.38
2018-05-08T05:56:42.423Z,986.42
2018-05-08T05:57:42.429Z,986.37
2018-05-08T05:58:42.434Z,986.37
2018-05-08T05:59:42.436Z,986.33
2018-05-08T06:00:42.445Z,986.32
2018-05-08T06:01:42.450Z,986.27
2018-05-08T06:02:42.454Z,986.29
2018-05-08T06:03:42.465Z,986.25
2018-05-08T06:04:42.474Z,986.25
2018-05-08T06:05:42.481Z,986.21
2018-05-08T06:06:42.481Z,986.22
2018-05-08T06:07:42.483Z,986.23
2018-05-08T06:08:42.496Z,986.21
2018-05-08T06:09:42.503Z,986.21
2018-05-08T06:10:42.503Z,986.18
2018-05-08T06:11:42.511Z,986.13
2018-05-08T06:12:42.521Z,986.17
2018-05-08T06:22:34.374Z,986.12
2018-05-08T06:23:34.375Z,986.14
2018-05-08T06:24:34.378Z,986.16
2018-05-08T06:25:34.385Z,986.09
2018-05-08T06:26:34.408Z,986.13
2018-05-08T06:27:34.399Z,986.12
2018-05-08T06:28:34.459Z,986.08
2018-05-08T06:29:34.410Z,986.07
2018-05-08T06:30:34.421Z,986.07
2018-05-08T06:31:34.457Z,986.1
2018-05-08T06:32:34.438Z,986.06
2018-05-08T06:33:34.440Z,985.99
2018-05-08T06:34:34.465Z,986.04
2018-05-08T06:35:34.463Z,986.05
2018-05-08T06:36:34.466Z,986.03
2018-05-08T06:37:35.274Z,986.03
2018-05-08T06:38:34.486Z,985.97
2018-05-08T06:39:34.583Z,985.94
2018-05-08T06:40:34.495Z,985.92
2018-05-08T06:41:34.505Z,985.92
2018-05-08T06:42:34.529Z,985.94
2018-05-08T06:43:34.525Z,985.94
2018-05-08T06:44:34.532Z,985.91
2018-05-08T06:45:34.541Z,985.88
2018-05-08T06:46:34.550Z,985.97
2018-05-08T06:47:34.554Z,985.96
2018-05-08T06:48:34.566Z,985.92
2018-05-08T06:49:34.574Z,985.95
2018-05-08T06:50:34.580Z,985.94
2018-05-08T06:51:34.588Z,985.91
2018-05-08T06:52:34.598Z,985.9
2018-05-08T06:53:34.609Z,985.91
2018-05-08T06:54:34.618Z,985.9
2018-05-08T06:55:34.623Z,985.91
2018-05-08T06:56:34.633Z,985.91
2018-05-08T06:57:34.644Z,985.93
2018-05-08T06:58:34.652Z,985.95
2018-05-08T06:59:34.658Z,985.9
2018-05-08T07:00:34.669Z,985.91
2018-05-08T07:01:34.677Z,985.96
2018-05-08T07:02:34.685Z,985.89
2018-05-08T07:03:34.695Z,985.98
2018-05-08T07:04:34.705Z,985.91
2018-05-08T07:05:34.717Z,985.9
2018-05-08T07:06:34.724Z,985.89
2018-05-08T07:07:34.730Z,985.92
2018-05-08T07:08:34.739Z,985.88
2018-05-08T07:09:34.750Z,985.89
2018-05-08T07:10:34.758Z,985.88
2018-05-08T07:11:34.765Z,985.86
2018-05-08T07:12:34.782Z,985.84
2018-05-08T07:13:34.784Z,985.81
2018-05-08T07:14:34.794Z,985.79
2018-05-08T07:15:34.803Z,985.79
2018-05-08T07:16:34.809Z,985.83
2018-05-08T07:17:34.823Z,985.77
2018-05-08T07:18:34.840Z,985.73
2018-05-08T07:19:34.839Z,985.75
2018-05-08T07:20:34.849Z,985.75
2018-05-08T07:21:34.856Z,985.74
2018-05-08T07:22:34.864Z,985.75
2018-05-08T07:23:34.871Z,985.75
2018-05-08T07:24:34.876Z,985.71
2018-05-08T07:25:34.895Z,985.75
2018-05-08T07:26:34.910Z,985.72
2018-05-08T07:27:34.905Z,985.78
2018-05-08T07:28:34.909Z,985.73
2018-05-08T07:29:34.914Z,985.75
2018-05-08T07:30:34.923Z,985.74
2018-05-08T07:31:34.934Z,985.78
2018-05-08T07:32:34.940Z,985.7
2018-05-08T07:33:34.948Z,985.67
2018-05-08T07:34:34.955Z,985.7
2018-05-08T07:35:34.961Z,985.69
2018-05-08T07:36:34.973Z,985.7
2018-05-08T07:37:34.978Z,985.6
2018-05-08T07:38:34.987Z,985.63
2018-05-08T07:39:34.998Z,985.65
2018-05-08T07:40:35.003Z,985.63
2018-05-08T07:41:35.011Z,985.64
2018-05-08T07:42:35.021Z,985.64
2018-05-08T07:43:35.029Z,985.64
2018-05-08T07:44:35.037Z,985.68
2018-05-08T07:45:35.049Z,985.63
2018-05-08T07:46:35.052Z,985.65
2018-05-08T07:47:35.062Z,985.64
2018-05-08T07:48:35.069Z,985.68
2018-05-08T07:49:35.078Z,985.72
2018-05-08T07:50:35.085Z,985.79
2018-05-08T07:51:35.103Z,985.75
2018-05-08T07:52:35.118Z,985.74
2018-05-08T07:53:35.113Z,985.73
2018-05-08T07:54:35.119Z,985.71
2018-05-08T07:55:35.128Z,985.75
2018-05-08T07:56:35.134Z,985.76
2018-05-08T07:57:35.145Z,985.76
2018-05-08T07:58:35.146Z,985.76
2018-05-08T07:59:35.153Z,985.74
2018-05-08T08:00:35.170Z,985.74
2018-05-08T08:01:35.173Z,985.67
2018-05-08T08:02:35.177Z,985.65
2018-05-08T08:03:35.194Z,985.77
2018-05-08T08:04:35.190Z,985.74
2018-05-08T08:05:35.200Z,985.72
2018-05-08T08:06:35.206Z,985.65
2018-05-08T08:07:35.275Z,985.71
2018-05-08T08:08:35.226Z,985.62
2018-05-08T08:09:35.228Z,985.64
2018-05-08T08:10:35.236Z,985.6
2018-05-08T08:11:35.246Z,985.6
2018-05-08T08:12:35.256Z,985.55
2018-05-08T08:13:35.261Z,985.62
2018-05-08T08:14:35.272Z,985.63
2018-05-08T08:15:35.282Z,985.55
2018-05-08T08:16:35.282Z,985.64
2018-05-08T08:17:35.300Z,985.54
2018-05-08T08:18:35.399Z,985.69
2018-05-08T08:19:35.303Z,985.62
2018-05-08T08:20:35.320Z,985.63
2018-05-08T08:21:35.337Z,985.6
2018-05-08T08:22:35.329Z,985.53
2018-05-08T08:23:35.387Z,985.54
2018-05-08T08:24:35.344Z,985.53
2018-05-08T08:25:35.370Z,985.54
2018-05-08T08:26:35.363Z,985.54
2018-05-08T08:27:35.370Z,985.51
2018-05-08T08:28:35.377Z,985.45
2018-05-08T08:29:35.382Z,985.49
2018-05-08T08:30:35.390Z,985.49
2018-05-08T08:31:35.398Z,985.44
2018-05-08T08:32:35.407Z,985.47
2018-05-08T08:33:35.417Z,985.55
2018-05-08T08:34:35.425Z,985.48
2018-05-08T08:35:35.507Z,985.49
2018-05-08T08:36:35.439Z,985.46
2018-05-08T08:37:35.444Z,985.46
2018-05-08T08:38:35.503Z,985.45
2018-05-08T08:39:35.461Z,985.38
2018-05-08T08:40:35.468Z,985.45
2018-05-08T08:41:35.480Z,985.39
2018-05-08T08:42:35.496Z,985.38
2018-05-08T08:43:35.497Z,985.39
2018-05-08T08:44:35.504Z,985.34
2018-05-08T08:45:35.510Z,985.38
2018-05-08T08:46:35.564Z,985.32
2018-05-08T08:47:35.624Z,985.27
2018-05-08T08:48:35.532Z,985.33
2018-05-08T08:49:35.537Z,985.33
2018-05-08T08:50:35.548Z,985.33
2018-05-08T08:51:35.553Z,985.37
2018-05-08T08:52:35.566Z,985.32
2018-05-08T08:53:35.572Z,985.31
2018-05-08T08:54:35.583Z,985.32
2018-05-08T08:55:35.585Z,985.37
2018-05-08T08:56:35.595Z,985.34
2018-05-08T08:57:35.600Z,985.35
2018-05-08T08:58:35.607Z,985.31
2018-05-08T08:59:35.613Z,985.39
2018-05-08T09:00:35.620Z,985.32
2018-05-08T09:01:35.636Z,985.31
2018-05-08T09:02:35.634Z,985.34
2018-05-08T09:03:35.642Z,985.32
2018-05-08T09:04:35.648Z,985.26
2018-05-08T09:05:35.653Z,985.38
2018-05-08T09:06:35.655Z,985.29
2018-05-08T09:07:35.662Z,985.28
2018-05-08T09:08:35.722Z,985.3
2018-05-08T09:09:35.674Z,985.22
2018-05-08T09:10:35.678Z,985.3
2018-05-08T09:11:35.687Z,985.24
2018-05-08T09:12:35.694Z,985.19
2018-05-08T09:13:35.776Z,985.15
2018-05-08T09:14:35.700Z,985.12
2018-05-08T09:15:35.711Z,985.19
2018-05-08T09:16:35.715Z,985.08
2018-05-08T09:17:35.717Z,985.1
2018-05-08T09:18:35.720Z,985.11
2018-05-08T09:19:35.726Z,985.08
2018-05-08T09:20:35.742Z,985.08
2018-05-08T09:21:35.735Z,985.12
2018-05-08T09:22:35.745Z,985.13
2018-05-08T09:23:35.796Z,985.16
2018-05-08T09:24:35.750Z,985.13
2018-05-08T09:25:35.757Z,985.15
2018-05-08T09:26:35.759Z,985.1
2018-05-08T09:27:35.807Z,985.04
2018-05-08T09:28:35.773Z,985.06
2018-05-08T09:29:35.777Z,985.03
2018-05-08T09:30:35.779Z,985.06
2018-05-08T09:31:35.785Z,985.1
2018-05-08T09:32:35.792Z,985.03
2018-05-08T09:33:35.795Z,984.99
2018-05-08T09:34:35.804Z,985.09
2018-05-08T09:35:35.807Z,984.97
2018-05-08T09:36:35.807Z,984.95
2018-05-08T09:37:35.815Z,984.94
2018-05-08T09:38:35.819Z,984.95
2018-05-08T09:39:35.823Z,984.96
2018-05-08T09:40:35.831Z,984.9
2018-05-08T09:41:35.835Z,984.89
2018-05-08T09:42:35.838Z,984.83
2018-05-08T09:43:35.849Z,984.81
2018-05-08T09:44:35.845Z,984.76
2018-05-08T09:45:35.851Z,984.82
2018-05-08T09:46:35.864Z,984.79
2018-05-08T09:47:35.859Z,984.77
2018-05-08T09:48:35.864Z,984.77
2018-05-08T09:49:35.872Z,984.81
2018-05-08T09:50:35.872Z,984.76
2018-05-08T09:51:35.887Z,984.77
2018-05-08T09:52:35.886Z,984.75
2018-05-08T09:53:35.941Z,984.7
2018-05-08T09:54:35.896Z,984.71
2018-05-08T09:55:35.903Z,984.67
2018-05-08T09:56:35.902Z,984.63
2018-05-08T09:57:35.907Z,984.63
2018-05-08T09:58:35.912Z,984.63
2018-05-08T09:59:35.916Z,984.69
2018-05-08T10:00:35.923Z,984.71
2018-05-08T10:01:35.925Z,984.67
2018-05-08T10:02:35.931Z,984.7
2018-05-08T10:03:35.938Z,984.68
2018-05-08T10:04:35.942Z,984.7
2018-05-08T10:05:35.947Z,984.66
2018-05-08T10:06:35.979Z,984.65
2018-05-08T10:07:35.957Z,984.64
2018-05-08T10:08:35.965Z,984.59
2018-05-08T10:09:35.974Z,984.58
2018-05-08T10:10:35.971Z,984.57
2018-05-08T10:11:35.973Z,984.46
2018-05-08T10:12:35.979Z,984.52
2018-05-08T10:13:35.990Z,984.48
2018-05-08T10:14:35.996Z,984.39
2018-05-08T10:15:35.997Z,984.42
2018-05-08T10:16:36.004Z,984.4
2018-05-08T10:17:36.008Z,984.44
2018-05-08T10:18:36.010Z,984.47
2018-05-08T10:19:36.012Z,984.42
2018-05-08T10:20:36.081Z,984.41
2018-05-08T10:21:36.032Z,984.37
2018-05-08T10:22:36.037Z,984.4
2018-05-08T10:53:00.117Z,983.89
2018-05-08T10:54:00.075Z,983.87
2018-05-08T10:55:00.093Z,983.87
2018-05-08T10:56:00.075Z,983.87
2018-05-08T10:57:00.074Z,983.88
2018-05-08T10:58:00.074Z,983.87
2018-05-08T10:59:00.075Z,983.9
2018-05-08T11:00:00.089Z,983.86
2018-05-08T11:01:00.083Z,983.88
2018-05-08T11:02:00.083Z,983.89
2018-05-08T11:03:00.088Z,983.85
2018-05-08T11:04:00.103Z,983.83
2018-05-08T11:05:00.097Z,983.8
2018-05-08T11:06:00.103Z,983.77
2018-05-08T11:07:00.103Z,983.74
2018-05-08T11:08:00.122Z,983.72
2018-05-08T11:09:00.122Z,983.66
2018-05-08T11:10:00.128Z,983.64
2018-05-08T11:11:00.130Z,983.64
2018-05-08T11:12:00.126Z,983.63
2018-05-08T11:13:00.129Z,983.63
2018-05-08T11:14:00.135Z,983.62
2018-05-08T11:15:00.151Z,983.54
2018-05-08T11:16:00.158Z,983.56
2018-05-08T11:17:00.149Z,983.55
2018-05-08T11:18:00.206Z,983.56
2018-05-08T11:19:00.157Z,983.58
2018-05-08T11:20:00.170Z,983.57
2018-05-08T11:21:00.171Z,983.54
2018-05-08T11:22:00.171Z,983.52
2018-05-08T11:23:00.179Z,983.5
2018-05-08T11:24:00.190Z,983.48
2018-05-08T11:25:00.185Z,983.51
2018-05-08T11:26:00.190Z,983.44
2018-05-08T11:27:00.202Z,983.47
2018-05-08T11:28:00.217Z,983.45
2018-05-08T11:29:00.215Z,983.46
2018-05-08T11:30:00.211Z,983.41
2018-05-08T11:31:00.225Z,983.35
2018-05-08T11:32:00.222Z,983.34
2018-05-08T11:33:00.233Z,983.34
2018-05-08T11:34:00.232Z,983.31
2018-05-08T11:35:00.234Z,983.29
2018-05-08T11:36:00.407Z,983.24
2018-05-08T11:37:00.251Z,983.24
2018-05-08T11:38:00.251Z,983.21
2018-05-08T11:39:00.252Z,983.2
2018-05-08T11:40:00.263Z,983.2
2018-05-08T11:41:00.264Z,983.17
2018-05-08T11:42:00.273Z,983.18
2018-05-08T11:43:00.277Z,983.24
2018-05-08T11:44:00.276Z,983.19
2018-05-08T11:45:00.290Z,983.21
2018-05-08T11:46:00.289Z,983.2
2018-05-08T11:47:00.294Z,983.22
2018-05-08T11:48:00.298Z,983.22
2018-05-08T11:49:00.307Z,983.15
2018-05-08T11:50:00.323Z,983.16
2018-05-08T11:51:00.316Z,983.15
2018-05-08T11:52:00.320Z,983.19
2018-05-08T11:53:00.329Z,983.17
2018-05-08T11:54:00.330Z,983.07
2018-05-08T11:55:00.338Z,983.11
2018-05-08T11:56:00.349Z,983.11
2018-05-08T11:57:00.355Z,983.02
2018-05-08T11:58:00.351Z,983.05
2018-05-08T11:59:00.357Z,983.04
2018-05-08T12:00:00.361Z,983.09
2018-05-08T12:01:00.454Z,983.05
2018-05-08T12:02:00.369Z,983.02
2018-05-08T12:03:00.376Z,983.03
2018-05-08T12:04:00.524Z,983.15
2018-05-08T12:05:00.387Z,983.05
2018-05-08T12:06:00.396Z,983.03
2018-05-08T12:07:00.399Z,982.99
2018-05-08T12:08:00.401Z,983.03
2018-05-08T12:09:00.428Z,983
2018-05-08T12:10:00.420Z,983
2018-05-08T12:11:00.418Z,983.05
2018-05-08T12:12:00.423Z,983.03
2018-05-08T12:13:00.426Z,982.96
2018-05-08T12:14:00.434Z,983
2018-05-08T12:15:00.441Z,982.95
2018-05-08T12:16:00.440Z,982.94
2018-05-08T12:17:00.456Z,982.87
2018-05-08T12:18:00.464Z,982.87
2018-05-08T12:19:00.458Z,982.85
2018-05-08T12:20:00.461Z,982.88
2018-05-08T12:21:00.463Z,982.85
2018-05-08T12:22:00.480Z,982.9
2018-05-08T12:23:00.481Z,982.88
2018-05-08T12:24:00.490Z,982.88
2018-05-08T12:25:00.487Z,982.9
2018-05-08T12:26:00.489Z,982.86
2018-05-08T12:27:00.499Z,982.92
2018-05-08T12:28:00.499Z,982.82
2018-05-08T12:29:00.505Z,982.82
2018-05-08T12:30:00.514Z,982.92
2018-05-08T12:31:00.523Z,983
2018-05-08T12:32:00.524Z,982.95
2018-05-08T12:33:00.532Z,982.93
2018-05-08T12:34:00.531Z,982.9
2018-05-08T12:35:00.535Z,982.88
2018-05-08T12:36:00.826Z,982.9
2018-05-08T12:37:00.548Z,982.93
2018-05-08T12:38:00.549Z,982.91
2018-05-08T12:39:00.554Z,982.89
2018-05-08T12:40:00.560Z,982.86
2018-05-08T12:41:00.562Z,982.74
2018-05-08T12:42:00.585Z,982.72
2018-05-08T12:43:00.593Z,982.69
2018-05-08T12:44:00.578Z,982.81
2018-05-08T12:45:00.593Z,982.83
2018-05-08T12:46:00.584Z,982.85
2018-05-08T12:47:00.592Z,982.73
2018-05-08T12:48:00.597Z,982.72
2018-05-08T12:49:00.601Z,982.76
2018-05-08T12:50:00.605Z,982.78
2018-05-08T12:51:00.610Z,982.8
2018-05-08T12:52:00.615Z,982.83
2018-05-08T12:53:00.622Z,982.75
2018-05-08T12:54:00.687Z,982.72
2018-05-08T12:55:00.638Z,982.71
2018-05-08T12:56:00.670Z,982.66
2018-05-08T12:57:00.640Z,982.62
2018-05-08T12:58:00.651Z,982.61
2018-05-08T12:59:00.909Z,982.6
2018-05-08T13:00:00.654Z,982.58
2018-05-08T13:01:00.668Z,982.56
2018-05-08T13:02:00.664Z,982.48
2018-05-08T13:03:00.672Z,982.51
2018-05-08T13:04:00.675Z,982.61
2018-05-08T13:05:00.694Z,982.54
2018-05-08T13:06:00.695Z,982.52
2018-05-08T13:07:00.698Z,982.5
2018-05-08T13:08:00.693Z,982.49
2018-05-08T13:09:00.701Z,982.51
2018-05-08T13:10:00.712Z,982.46